createdAt,value
2019-01-08T00:02:11.356Z,97861.68
2019-01-08T00:04:42.953Z,97866.28
2019-01-08T00:07:14.320Z,97865.87
2019-01-08T00:09:45.791Z,97859.14
2019-01-08T00:12:17.313Z,97856.64
2019-01-08T00:14:48.967Z,97865.43
2019-01-08T00:17:20.457Z,97863.77
2019-01-08T00:19:51.938Z,97864.57
2019-01-08T00:22:23.605Z,97867.50
2019-01-08T00:24:55.173Z,97862.47
2019-01-08T00:27:26.810Z,97864.97
2019-01-08T00:29:58.316Z,97857.01
2019-01-08T00:32:29.946Z,97856.98
2019-01-08T00:35:01.543Z,97867.05
2019-01-08T00:37:33.113Z,97864.53
2019-01-08T00:40:04.788Z,97857.81
2019-01-08T00:42:36.388Z,97853.20
2019-01-08T00:45:08.024Z,97850.20
2019-01-08T00:47:39.549Z,97850.61
2019-01-08T00:50:10.945Z,97839.71
2019-01-08T00:52:42.423Z,97837.61
2019-01-08T00:55:13.879Z,97836.77
2019-01-08T00:57:45.400Z,97836.73
2019-01-08T01:00:16.956Z,97843.43
2019-01-08T01:02:48.458Z,97837.97
2019-01-08T01:05:19.853Z,97845.48
2019-01-08T01:07:51.330Z,97836.69
2019-01-08T01:10:22.921Z,97829.58
2019-01-08T01:12:54.391Z,97834.20
2019-01-08T01:15:25.839Z,97838.81
2019-01-08T01:17:57.304Z,97832.12
2019-01-08T01:20:28.844Z,97835.05
2019-01-08T01:23:00.407Z,97834.20
2019-01-08T01:25:31.999Z,97835.05
2019-01-08T01:28:03.461Z,97826.61
2019-01-08T01:30:35.009Z,97824.13
2019-01-08T01:33:06.568Z,97832.89
2019-01-08T01:35:38.115Z,97824.48
2019-01-08T01:38:09.690Z,97818.60
2019-01-08T01:40:41.206Z,97817.34
2019-01-08T01:43:12.688Z,97816.91
2019-01-08T01:45:45.190Z,97813.95
2019-01-08T01:48:17.002Z,97811.42
2019-01-08T01:50:48.453Z,97808.91
2019-01-08T01:53:20.483Z,97811.38
2019-01-08T01:55:52.168Z,97815.13
2019-01-08T01:58:23.615Z,97809.25
2019-01-08T02:00:55.179Z,97800.45
2019-01-08T02:03:26.799Z,97795.41
2019-01-08T02:05:58.257Z,97802.91
2019-01-08T02:08:29.903Z,97796.22
2019-01-08T02:11:01.349Z,97788.66
2019-01-08T02:13:32.987Z,97794.52
2019-01-08T02:16:04.545Z,97788.21
2019-01-08T02:18:36.027Z,97783.59
2019-01-08T02:21:07.946Z,97794.89
2019-01-08T02:23:39.491Z,97784.85
2019-01-08T02:26:11.060Z,97777.32
2019-01-08T02:28:42.645Z,97788.59
2019-01-08T02:31:14.240Z,97775.63
2019-01-08T02:33:47.120Z,97777.66
2019-01-08T02:36:18.765Z,97772.67
2019-01-08T02:38:50.312Z,97776.00
2019-01-08T02:41:21.991Z,97770.09
2019-01-08T02:43:53.712Z,97762.12
2019-01-08T02:46:25.154Z,97757.13
2019-01-08T02:48:56.648Z,97759.68
2019-01-08T02:51:28.209Z,97763.07
2019-01-08T02:53:59.547Z,97757.58
2019-01-08T02:56:31.050Z,97755.91
2019-01-08T02:59:02.491Z,97768.84
2019-01-08T03:01:33.927Z,97765.95
2019-01-08T03:04:05.471Z,97770.09
2019-01-08T03:06:37.016Z,97776.34
2019-01-08T03:09:08.646Z,97767.17
2019-01-08T03:11:40.076Z,97778.51
2019-01-08T03:14:11.669Z,97762.16
2019-01-08T03:16:43.252Z,97759.23
2019-01-08T03:19:14.891Z,97760.05
2019-01-08T03:21:46.443Z,97767.98
2019-01-08T03:24:18.050Z,97760.45
2019-01-08T03:26:49.371Z,97766.33
2019-01-08T03:29:20.926Z,97770.13
2019-01-08T03:31:52.457Z,97773.86
2019-01-08T03:34:23.996Z,97779.73
2019-01-08T03:36:55.506Z,97781.42
2019-01-08T03:39:27.091Z,97776.41
2019-01-08T03:41:58.558Z,97780.13
2019-01-08T03:44:30.543Z,97783.05
2019-01-08T03:47:02.032Z,97778.44
2019-01-08T03:49:34.679Z,97780.50
2019-01-08T03:52:06.198Z,97780.50
2019-01-08T03:54:37.538Z,97775.89
2019-01-08T03:57:09.069Z,97781.34
2019-01-08T03:59:41.993Z,97774.55
2019-01-08T04:02:13.948Z,97775.00
2019-01-08T04:04:45.396Z,97773.75
2019-01-08T04:07:17.007Z,97770.79
2019-01-08T04:09:48.665Z,97766.58
2019-01-08T04:12:20.258Z,97766.59
2019-01-08T04:14:51.648Z,97759.05
2019-01-08T04:17:23.189Z,97758.97
2019-01-08T04:19:54.808Z,97755.66
2019-01-08T04:22:26.315Z,97758.61
2019-01-08T04:24:57.857Z,97757.36
2019-01-08T04:27:29.416Z,97750.55
2019-01-08T04:30:01.072Z,97746.83
2019-01-08T04:32:32.418Z,97745.62
2019-01-08T04:35:03.916Z,97746.42
2019-01-08T04:37:35.306Z,97748.94
2019-01-08T04:40:06.991Z,97745.58
2019-01-08T04:42:38.427Z,97755.57
2019-01-08T04:45:09.836Z,97748.09
2019-01-08T04:47:41.220Z,97750.64
2019-01-08T04:50:13.927Z,97754.81
2019-01-08T04:52:45.369Z,97758.24
2019-01-08T04:55:16.931Z,97751.92
2019-01-08T04:57:48.569Z,97754.00
2019-01-08T05:00:20.136Z,97753.11
2019-01-08T05:02:51.621Z,97749.34
2019-01-08T05:05:23.249Z,97747.28
2019-01-08T05:07:54.773Z,97752.70
2019-01-08T05:10:26.319Z,97743.52
2019-01-08T05:12:57.796Z,97742.63
2019-01-08T05:15:29.307Z,97740.56
2019-01-08T05:18:00.726Z,97737.24
2019-01-08T05:20:32.233Z,97735.58
2019-01-08T05:23:04.212Z,97738.50
2019-01-08T05:25:35.795Z,97740.59
2019-01-08T05:28:07.357Z,97738.45
2019-01-08T05:30:40.098Z,97738.45
2019-01-08T05:33:11.623Z,97738.86
2019-01-08T05:35:43.288Z,97738.01
2019-01-08T05:38:15.027Z,97735.95
2019-01-08T05:40:46.500Z,97735.95
2019-01-08T05:43:18.147Z,97740.12
2019-01-08T05:45:49.798Z,97743.03
2019-01-08T05:48:21.188Z,97743.92
2019-01-08T05:50:52.650Z,97745.13
2019-01-08T05:53:24.159Z,97741.77
2019-01-08T05:55:55.794Z,97741.78
2019-01-08T05:58:27.219Z,97742.19
2019-01-08T06:00:58.814Z,97742.94
2019-01-08T06:03:30.248Z,97741.20
2019-01-08T06:06:01.939Z,97749.61
2019-01-08T06:08:33.413Z,97741.25
2019-01-08T06:11:05.105Z,97739.54
2019-01-08T06:13:36.734Z,97738.73
2019-01-08T06:16:08.227Z,97741.28
2019-01-08T06:18:39.700Z,97734.25
2019-01-08T06:21:11.170Z,97740.11
2019-01-08T06:23:42.630Z,97739.75
2019-01-08T06:26:14.086Z,97743.08
2019-01-08T06:28:45.530Z,97738.53
2019-01-08T06:31:16.995Z,97736.44
2019-01-08T06:33:48.420Z,97734.44
2019-01-08T06:36:19.979Z,97730.71
2019-01-08T06:38:51.446Z,97723.25
2019-01-08T06:41:23.070Z,97721.55
2019-01-08T06:43:54.811Z,97727.86
2019-01-08T06:46:26.317Z,97716.56
2019-01-08T06:48:57.889Z,97721.67
2019-01-08T06:51:29.309Z,97723.42
2019-01-08T06:54:00.826Z,97723.92
2019-01-08T06:56:32.290Z,97722.69
2019-01-08T06:59:03.725Z,97719.80
2019-01-08T07:01:35.323Z,97711.40
2019-01-08T07:04:06.851Z,97712.28
2019-01-08T07:06:38.442Z,97708.92
2019-01-08T07:09:09.806Z,97719.45
2019-01-08T07:11:41.313Z,97720.30
2019-01-08T07:14:12.868Z,97715.70
2019-01-08T07:16:44.399Z,97721.18
2019-01-08T07:19:15.927Z,97714.90
2019-01-08T07:21:47.499Z,97719.11
2019-01-08T07:24:18.917Z,97713.63
2019-01-08T07:26:50.445Z,97711.96
2019-01-08T07:29:22.023Z,97712.78
2019-01-08T07:31:53.576Z,97703.97
2019-01-08T07:34:25.128Z,97706.06
2019-01-08T07:36:56.622Z,97695.55
2019-01-08T07:39:28.191Z,97691.34
2019-01-08T07:41:59.726Z,97689.66
2019-01-08T07:44:33.972Z,97690.94
2019-01-08T07:47:05.342Z,97688.83
2019-01-08T07:49:36.910Z,97684.66
2019-01-08T07:52:08.467Z,97683.37
2019-01-08T07:54:40.061Z,97683.78
2019-01-08T07:57:11.721Z,97676.22
2019-01-08T07:59:43.399Z,97677.89
2019-01-08T08:02:14.801Z,97670.76
2019-01-08T08:04:47.742Z,97673.22
2019-01-08T08:07:19.755Z,97674.87
2019-01-08T08:09:51.128Z,97667.69
2019-01-08T08:12:22.710Z,97668.91
2019-01-08T08:14:53.938Z,97668.82
2019-01-08T08:17:25.404Z,97659.55
2019-01-08T08:19:56.876Z,97654.89
2019-01-08T08:22:28.349Z,97652.72
2019-01-08T08:25:02.507Z,97654.00
2019-01-08T08:27:34.229Z,97648.43
2019-01-08T08:30:06.541Z,97640.76
2019-01-08T08:32:38.183Z,97638.14
2019-01-08T08:35:09.857Z,97628.93
2019-01-08T08:37:42.549Z,97634.05
2019-01-08T08:40:15.166Z,97623.99
2019-01-08T08:42:48.692Z,97620.64
2019-01-08T08:45:20.354Z,97621.94
2019-01-08T08:47:51.963Z,97622.73
2019-01-08T08:50:23.482Z,97618.08
2019-01-08T08:52:54.987Z,97618.94
2019-01-08T08:55:26.353Z,97612.64
2019-01-08T08:57:58.036Z,97610.17
2019-01-08T09:00:29.474Z,97615.59
2019-01-08T09:03:03.920Z,97610.91
2019-01-08T09:05:36.608Z,97605.89
2019-01-08T09:08:08.209Z,97600.39
2019-01-08T09:10:39.910Z,97592.82
2019-01-08T09:13:11.452Z,97591.11
2019-01-08T09:15:42.974Z,97579.28
2019-01-08T09:18:14.267Z,97573.97
2019-01-08T09:20:45.851Z,97574.94
2019-01-08T09:23:17.346Z,97571.22
2019-01-08T09:25:48.788Z,97573.39
2019-01-08T09:28:20.390Z,97569.81
2019-01-08T09:30:52.001Z,97563.79
2019-01-08T09:33:23.767Z,97564.80
2019-01-08T09:35:55.080Z,97563.08
2019-01-08T09:38:26.533Z,97558.64
2019-01-08T09:40:58.142Z,97560.82
2019-01-08T09:43:29.578Z,97554.39
2019-01-08T09:46:01.007Z,97556.84
2019-01-08T09:48:32.446Z,97545.16
2019-01-08T09:51:04.119Z,97540.38
2019-01-08T09:53:35.715Z,97533.94
2019-01-08T09:56:07.255Z,97528.11
2019-01-08T09:58:38.783Z,97531.06
2019-01-08T10:01:10.239Z,97534.20
2019-01-08T10:03:41.719Z,97526.59
2019-01-08T10:06:13.273Z,97534.83
2019-01-08T10:08:45.328Z,97523.34
2019-01-08T10:11:16.823Z,97518.89
2019-01-08T10:13:48.380Z,97520.62
2019-01-08T10:16:19.865Z,97515.34
2019-01-08T10:18:51.433Z,97509.45
2019-01-08T10:21:22.912Z,97495.05
2019-01-08T10:23:54.550Z,97495.28
2019-01-08T10:26:26.054Z,97492.84
2019-01-08T10:28:57.562Z,97479.05
2019-01-08T10:31:32.622Z,97475.79
2019-01-08T10:34:02.841Z,97471.79
2019-01-08T10:36:34.681Z,97465.75
2019-01-08T10:39:08.452Z,97462.65
2019-01-08T10:41:39.970Z,97453.47
2019-01-08T10:44:11.487Z,97457.47
2019-01-08T10:46:43.151Z,97444.49
2019-01-08T10:49:14.609Z,97439.96
2019-01-08T10:51:46.125Z,97442.31
2019-01-08T10:54:17.531Z,97433.13
2019-01-08T10:56:49.997Z,97432.84
2019-01-08T10:59:21.420Z,97422.07
2019-01-08T11:01:52.859Z,97422.97
2019-01-08T11:04:24.266Z,97418.96
2019-01-08T11:06:55.747Z,97411.16
2019-01-08T11:09:27.270Z,97408.08
2019-01-08T11:11:58.741Z,97396.79
2019-01-08T11:14:30.226Z,97401.71
2019-01-08T11:17:01.651Z,97397.84
2019-01-08T11:19:33.051Z,97392.45
2019-01-08T11:22:04.660Z,97391.47
2019-01-08T11:24:36.137Z,97390.02
2019-01-08T11:27:07.561Z,97385.05
2019-01-08T11:29:38.997Z,97377.16
2019-01-08T11:32:10.522Z,97372.20
2019-01-08T11:34:42.028Z,97367.88
2019-01-08T11:37:13.500Z,97362.91
2019-01-08T11:39:45.000Z,97360.38
2019-01-08T11:42:16.373Z,97357.20
2019-01-08T11:44:47.761Z,97350.55
2019-01-08T11:47:20.360Z,97340.92
2019-01-08T11:49:51.816Z,97333.52
2019-01-08T11:52:23.274Z,97337.73
2019-01-08T11:54:54.829Z,97336.19
2019-01-08T11:57:26.121Z,97333.45
2019-01-08T11:59:57.590Z,97326.32
2019-01-08T12:02:28.830Z,97315.07
2019-01-08T12:05:00.412Z,97317.00
2019-01-08T12:07:32.073Z,97313.76
2019-01-08T12:10:03.568Z,97310.09
2019-01-08T12:12:35.106Z,97307.84
2019-01-08T12:15:07.256Z,97314.12
2019-01-08T12:17:38.871Z,97305.59
2019-01-08T12:20:12.163Z,97298.00
2019-01-08T12:22:43.667Z,97302.61
2019-01-08T12:25:15.108Z,97295.95
2019-01-08T12:27:46.551Z,97296.55
2019-01-08T12:30:18.049Z,97292.97
2019-01-08T12:32:49.548Z,97298.41
2019-01-08T12:35:21.155Z,97297.10
2019-01-08T12:37:52.670Z,97298.67
2019-01-08T12:40:24.113Z,97291.17
2019-01-08T12:42:55.639Z,97295.85
2019-01-08T12:45:27.261Z,97289.45
2019-01-08T12:47:58.804Z,97290.24
2019-01-08T12:50:30.330Z,97286.86
2019-01-08T12:53:01.971Z,97290.75
2019-01-08T12:55:33.438Z,97298.22
2019-01-08T12:58:04.966Z,97288.38
2019-01-08T13:00:36.593Z,97284.59
2019-01-08T13:03:08.088Z,97288.84
2019-01-08T13:05:39.573Z,97280.21
2019-01-08T13:08:11.241Z,97286.08
2019-01-08T13:10:42.829Z,97281.55
2019-01-08T13:13:14.479Z,97283.41
2019-01-08T13:15:46.101Z,97278.43
2019-01-08T13:18:17.591Z,97272.95
2019-01-08T13:20:49.106Z,97264.52
2019-01-08T13:23:20.546Z,97266.13
2019-01-08T13:25:51.897Z,97259.47
2019-01-08T13:28:24.947Z,97266.67
2019-01-08T13:30:56.400Z,97253.34
2019-01-08T13:33:27.910Z,97242.39
2019-01-08T13:36:00.859Z,97243.43
2019-01-08T13:38:32.790Z,97239.52
2019-01-08T13:41:04.359Z,97239.14
2019-01-08T13:43:35.787Z,97244.66
2019-01-08T13:46:07.259Z,97242.59
2019-01-08T13:48:38.739Z,97238.77
2019-01-08T13:51:10.283Z,97240.45
2019-01-08T13:53:41.740Z,97239.59
2019-01-08T13:56:13.331Z,97234.58
2019-01-08T13:58:44.800Z,97232.48
2019-01-08T14:01:17.025Z,97228.34
2019-01-08T14:03:48.540Z,97225.98
2019-01-08T14:06:20.121Z,97219.70
2019-01-08T14:08:51.649Z,97226.05
2019-01-08T14:11:23.081Z,97222.19
2019-01-08T14:13:54.821Z,97222.38
2019-01-08T14:16:26.690Z,97210.59
2019-01-08T14:18:59.518Z,97211.23
2019-01-08T14:21:31.626Z,97210.86
2019-01-08T14:24:03.634Z,97204.61
2019-01-08T14:26:35.523Z,97203.73
2019-01-08T14:29:06.968Z,97205.45
2019-01-08T14:31:38.411Z,97205.08
2019-01-08T14:34:09.964Z,97201.75
2019-01-08T14:36:41.430Z,97197.49
2019-01-08T14:39:13.225Z,97194.58
2019-01-08T14:41:46.539Z,97195.77
2019-01-08T14:44:18.035Z,97192.73
2019-01-08T14:46:49.746Z,97192.05
2019-01-08T14:49:21.280Z,97183.59
2019-01-08T14:51:52.800Z,97177.39
2019-01-08T14:54:24.325Z,97175.67
2019-01-08T14:56:55.941Z,97170.06
2019-01-08T14:59:27.518Z,97173.61
2019-01-08T15:01:58.990Z,97167.71
2019-01-08T15:04:30.480Z,97166.30
2019-01-08T15:07:02.036Z,97163.78
2019-01-08T15:09:33.510Z,97167.38
2019-01-08T15:12:05.061Z,97163.28
2019-01-08T15:14:36.511Z,97163.63
2019-01-08T15:17:07.986Z,97155.25
2019-01-08T15:19:39.861Z,97155.66
2019-01-08T15:22:11.362Z,97155.94
2019-01-08T15:24:42.869Z,97149.70
2019-01-08T15:27:30.171Z,97148.05
2019-01-08T15:30:01.610Z,97145.56
2019-01-08T15:32:33.255Z,97141.02
2019-01-08T15:35:04.789Z,97140.97
2019-01-08T15:37:36.321Z,97138.02
2019-01-08T15:40:08.049Z,97137.03
2019-01-08T15:42:39.657Z,97127.00
2019-01-08T15:45:11.462Z,97125.78
2019-01-08T15:47:43.037Z,97127.81
2019-01-08T15:50:14.500Z,97123.25
2019-01-08T15:52:45.885Z,97119.55
2019-01-08T15:55:31.385Z,97122.84
2019-01-08T15:58:04.385Z,97122.03
2019-01-08T16:00:35.960Z,97116.78
2019-01-08T16:03:07.719Z,97110.51
2019-01-08T16:05:39.371Z,97113.14
2019-01-08T16:08:10.993Z,97116.51
2019-01-08T16:10:44.320Z,97115.25
2019-01-08T16:13:15.763Z,97110.27
2019-01-08T16:15:47.279Z,97119.63
2019-01-08T16:18:18.725Z,97120.95
2019-01-08T16:20:50.361Z,97107.95
2019-01-08T16:23:22.018Z,97115.70
2019-01-08T16:25:53.490Z,97113.53
2019-01-08T16:28:26.575Z,97115.80
2019-01-08T16:30:59.398Z,97117.48
2019-01-08T16:33:30.820Z,97112.08
2019-01-08T16:36:02.267Z,97110.46
2019-01-08T16:38:33.727Z,97115.15
2019-01-08T16:41:05.271Z,97117.28
2019-01-08T16:43:36.812Z,97110.98
2019-01-08T16:46:08.422Z,97117.41
2019-01-08T16:48:40.089Z,97116.77
2019-01-08T16:51:11.563Z,97116.38
2019-01-08T16:53:52.331Z,97113.95
2019-01-08T16:56:23.922Z,97110.17
2019-01-08T16:58:55.761Z,97112.30
2019-01-08T17:01:27.156Z,97120.26
2019-01-08T17:03:58.876Z,97117.34
2019-01-08T17:06:30.692Z,97112.01
2019-01-08T17:09:02.167Z,97110.84
2019-01-08T17:11:35.587Z,97112.46
2019-01-08T17:14:07.224Z,97109.03
2019-01-08T17:16:38.829Z,97113.72
2019-01-08T17:19:10.416Z,97114.53
2019-01-08T17:21:43.220Z,97115.40
2019-01-08T17:24:14.903Z,97116.72
2019-01-08T17:26:46.434Z,97112.97
2019-01-08T17:29:17.864Z,97111.44
2019-01-08T17:31:49.447Z,97104.75
2019-01-08T17:34:20.789Z,97109.00
2019-01-08T17:36:52.261Z,97103.24
2019-01-08T17:39:25.037Z,97103.33
2019-01-08T17:41:56.519Z,97102.23
2019-01-08T17:44:27.828Z,97104.30
2019-01-08T17:46:59.175Z,97095.09
2019-01-08T17:49:30.717Z,97095.88
2019-01-08T17:52:02.288Z,97098.40
2019-01-08T17:54:33.709Z,97096.33
2019-01-08T17:57:05.203Z,97092.13
2019-01-08T17:59:36.681Z,97087.84
2019-01-08T18:02:14.367Z,97083.67
2019-01-08T18:04:45.831Z,97085.41
2019-01-08T18:07:17.375Z,97085.80
2019-01-08T18:09:48.876Z,97077.16
2019-01-08T18:12:20.509Z,97080.53
2019-01-08T18:14:52.019Z,97078.55
2019-01-08T18:17:23.379Z,97080.53
2019-01-08T18:19:54.879Z,97076.26
2019-01-08T18:22:26.308Z,97078.80
2019-01-08T18:24:57.830Z,97077.06
2019-01-08T18:27:29.281Z,97071.95
2019-01-08T18:30:00.789Z,97074.21
2019-01-08T18:32:32.336Z,97072.92
2019-01-08T18:35:03.735Z,97067.27
2019-01-08T18:37:35.136Z,97063.52
2019-01-08T18:40:07.155Z,97062.67
2019-01-08T18:42:38.831Z,97059.37
2019-01-08T18:45:10.466Z,97065.31
2019-01-08T18:47:41.905Z,97062.33
2019-01-08T18:50:13.330Z,97059.08
2019-01-08T18:52:44.630Z,97055.28
2019-01-08T18:55:16.191Z,97050.34
2019-01-08T18:57:48.846Z,97049.95
2019-01-08T19:00:20.555Z,97046.44
2019-01-08T19:02:52.138Z,97040.28
2019-01-08T19:05:23.659Z,97033.52
2019-01-08T19:07:55.262Z,97026.36
2019-01-08T19:10:26.852Z,97023.55
2019-01-08T19:12:58.489Z,97015.16
2019-01-08T19:15:29.971Z,97014.02
2019-01-08T19:18:01.491Z,97012.87
2019-01-08T19:20:33.121Z,97011.51
2019-01-08T19:23:04.679Z,97005.64
2019-01-08T19:25:36.108Z,97008.50
2019-01-08T19:28:07.418Z,97001.89
2019-01-08T19:30:38.820Z,96996.46
2019-01-08T19:33:10.380Z,96995.64
2019-01-08T19:35:41.740Z,96991.44
2019-01-08T19:38:13.213Z,96994.02
2019-01-08T19:40:44.659Z,96993.89
2019-01-08T19:43:16.212Z,96998.80
2019-01-08T19:45:47.709Z,96998.44
2019-01-08T19:48:19.209Z,96993.77
2019-01-08T19:50:50.591Z,96991.75
2019-01-08T19:53:22.029Z,96985.84
2019-01-08T19:55:53.538Z,96988.73
2019-01-08T19:58:25.159Z,96987.00
2019-01-08T20:00:56.582Z,96983.64
2019-01-08T20:03:28.179Z,96981.09
2019-01-08T20:05:59.755Z,96979.39
2019-01-08T20:08:31.391Z,96978.11
2019-01-08T20:11:02.767Z,96974.36
2019-01-08T20:13:34.337Z,96967.37
2019-01-08T20:16:05.914Z,96973.23
2019-01-08T20:18:45.007Z,96961.88
2019-01-08T20:21:10.599Z,96954.00
2019-01-08T20:23:43.578Z,96947.70
2019-01-08T20:26:15.182Z,96942.17
2019-01-08T20:28:46.586Z,96944.75
2019-01-08T20:31:18.242Z,96940.52
2019-01-08T20:33:49.578Z,96939.30
2019-01-08T20:36:21.062Z,96935.94
2019-01-08T20:38:52.289Z,96927.49
2019-01-08T20:41:23.743Z,96922.01
2019-01-08T20:43:56.049Z,96923.66
2019-01-08T20:46:27.501Z,96927.02
2019-01-08T20:48:58.934Z,96920.33
2019-01-08T20:51:30.436Z,96911.16
2019-01-08T20:54:23.404Z,96905.23
2019-01-08T20:56:57.919Z,96908.55
2019-01-08T20:59:29.292Z,96907.39
2019-01-08T21:02:01.758Z,96908.67
2019-01-08T21:04:35.757Z,96902.80
2019-01-08T21:07:29.019Z,96911.61
2019-01-08T21:10:00.543Z,96903.61
2019-01-08T21:12:31.933Z,96902.72
2019-01-08T21:15:03.547Z,96896.75
2019-01-08T21:17:34.965Z,96906.07
2019-01-08T21:20:08.071Z,96903.52
2019-01-08T21:22:39.521Z,96898.10
2019-01-08T21:25:13.208Z,96899.75
2019-01-08T21:27:44.343Z,96903.91
2019-01-08T21:30:15.869Z,96900.95
2019-01-08T21:32:47.287Z,96893.52
2019-01-08T21:35:18.561Z,96885.94
2019-01-08T21:37:50.073Z,96890.42
2019-01-08T21:40:21.537Z,96884.65
2019-01-08T21:42:53.072Z,96883.81
2019-01-08T21:45:24.691Z,96874.67
2019-01-08T21:47:56.362Z,96873.12
2019-01-08T21:50:50.626Z,96870.20
2019-01-08T21:53:23.399Z,96870.27
2019-01-08T21:55:54.946Z,96870.63
2019-01-08T21:58:26.469Z,96871.92
2019-01-08T22:00:58.022Z,96866.95
2019-01-08T22:03:29.741Z,96859.37
2019-01-08T22:06:01.219Z,96862.75
2019-01-08T22:08:32.758Z,96862.39
2019-01-08T22:11:04.172Z,96859.01
2019-01-08T22:13:35.799Z,96851.08
2019-01-08T22:16:27.641Z,96850.63
2019-01-08T22:19:02.341Z,96849.36
2019-01-08T22:21:33.840Z,96843.08
2019-01-08T22:24:06.580Z,96841.78
2019-01-08T22:26:38.165Z,96838.41
2019-01-08T22:29:09.704Z,96835.08
2019-01-08T22:31:41.241Z,96831.48
2019-01-08T22:34:13.233Z,96823.40
2019-01-08T22:36:44.808Z,96827.17
2019-01-08T22:39:34.283Z,96821.27
2019-01-08T22:42:07.501Z,96821.30
2019-01-08T22:44:38.863Z,96826.75
2019-01-08T22:47:14.651Z,96822.95
2019-01-08T22:49:47.642Z,96820.56
2019-01-08T22:52:19.191Z,96816.30
2019-01-08T22:54:50.701Z,96811.66
2019-01-08T22:57:22.921Z,96809.66
2019-01-08T22:59:56.779Z,96813.78
2019-01-08T23:02:31.719Z,96808.66
2019-01-08T23:05:10.735Z,96802.27
2019-01-08T23:07:47.374Z,96800.59
2019-01-08T23:10:30.054Z,96791.80
2019-01-08T23:12:58.119Z,96788.44
2019-01-08T23:15:29.533Z,96791.05
2019-01-08T23:18:02.468Z,96790.30
2019-01-08T23:20:35.487Z,96784.31
2019-01-08T23:23:11.456Z,96775.02
2019-01-08T23:25:43.069Z,96774.44
2019-01-08T23:28:22.679Z,96776.15
2019-01-08T23:30:54.408Z,96774.44
2019-01-08T23:33:26.030Z,96768.92
2019-01-08T23:36:00.546Z,96769.41
2019-01-08T23:38:32.169Z,96760.96
2019-01-08T23:41:07.040Z,96762.57
2019-01-08T23:43:38.572Z,96758.80
2019-01-08T23:46:10.080Z,96763.54
2019-01-08T23:48:41.511Z,96758.09
2019-01-08T23:51:13.264Z,96763.48
2019-01-08T23:53:49.054Z,96760.64
2019-01-08T23:56:24.801Z,96759.80
2019-01-08T23:58:57.714Z,96761.99
